Terminal Aerodrome Forecast
Issued by NWS

Home | Current Version | Previous Version | Text Only | Print | Product List | Glossary On
Versions: 1 2 3 4 5 6 7 8 9 10 11 12 13
058
FTUS46 KMTR 220525
TAFSNS
TAF
KSNS 220525Z 2206/2306 28008KT P6SM SKC
     FM221000 29005KT P6SM SCT008
     FM221200 VRB03KT 4SM BR OVC004
     FM221600 VRB03KT P6SM SCT007
     FM221800 28012KT P6SM SKC
     FM230400 28007KT P6SM SKC=

USA.gov is the U.S. government's official web portal to all federal, state and local government web resources and services.